Liguria — IRKJ — position and weather

sailwx.info

Track history (hours):
 
Tides and Currents Weather Stations Pressure Air Temp Water Temp Dewpoint Dewpoint Depression Visibility Wind Speed Wind Dir Waves Ship Positions

Liguria

Last reported at 2017-Feb-27 19:33 UTC. Time now 2017-Feb-27 20:30 UTC.
Position N 44°18' E 008°29'.

Length 30 m; draft 4.5 m.

Type: Tug. MMSI: 247228500.

Date/timePositionNaut miles runAvg speedWind from/ knotsBaromVisibWave heightAir tempDewpointWater temp
2017-Feb-27 19:33N 44°18' E 008°29'2 1.8
2017-Feb-27 18:33N 44°17' E 008°28'1 0.9
2017-Feb-27 17:33N 44°16' E 008°27'3 0.5
2017-Feb-27 12:30N 44°18' E 008°29'0 0.0
2017-Feb-27 11:30N 44°18' E 008°29'0 0.0
2017-Feb-27 08:29N 44°18' E 008°29'0 0.0
2017-Feb-27 07:29N 44°18' E 008°29'0 0.0
2017-Feb-27 06:29N 44°18' E 008°29'0 0.0
2017-Feb-27 05:29N 44°18' E 008°29'0 0.0
2017-Feb-27 04:32N 44°18' E 008°29'0 0.0
2017-Feb-27 03:29N 44°18' E 008°29'0 0.0
2017-Feb-27 02:32N 44°18' E 008°29'0 0.0
2017-Feb-27 01:32N 44°18' E 008°29'0 0.0
2017-Feb-27 00:32N 44°18' E 008°29'0 0.0
2017-Feb-26 23:29N 44°18' E 008°29'0 0.0
2017-Feb-26 13:31N 44°18' E 008°29'0 0.0
2017-Feb-26 12:28N 44°18' E 008°29'0 0.0
2017-Feb-26 11:22N 44°18' E 008°29'0 0.0
2017-Feb-26 10:22N 44°18' E 008°29'0 0.0
2017-Feb-26 09:28N 44°18' E 008°29'0 0.0
2017-Feb-26 08:28N 44°18' E 008°29'0 0.0
2017-Feb-26 07:28N 44°18' E 008°29'1 1.1
2017-Feb-26 06:33N 44°19' E 008°31'1 1.0
2017-Feb-26 05:33N 44°18' E 008°29'0 0.0
2017-Feb-26 04:27N 44°18' E 008°29'0 0.0
2017-Feb-25 18:22N 44°18' E 008°29'0 0.0
2017-Feb-25 17:28N 44°18' E 008°29'1 0.8
2017-Feb-25 16:33N 44°19' E 008°30'1 0.6
2017-Feb-25 15:28N 44°18' E 008°29'0 0.4
2017-Feb-25 14:33N 44°19' E 008°30'0 0.1
2017-Feb-25 08:19N 44°18' E 008°29'0 0.0
2017-Feb-25 07:31N 44°18' E 008°29'0 0.0
2017-Feb-25 06:31N 44°18' E 008°29'3 3.1
2017-Feb-25 05:31N 44°16' E 008°27'3 3.6
2017-Feb-25 04:33N 44°19' E 008°30'0 0.3
2017-Feb-25 03:27N 44°18' E 008°29'0 0.0
2017-Feb-25 02:33N 44°18' E 008°29'1 1.4
2017-Feb-25 01:33N 44°17' E 008°29'2 1.6
2017-Feb-25 00:29N 44°19' E 008°30'0 0.1
2017-Feb-24 23:33N 44°19' E 008°30'0 0.4
2017-Feb-24 22:31N 44°18' E 008°29'0 0.0
2017-Feb-24 21:31N 44°18' E 008°29'0 0.0
2017-Feb-24 20:31N 44°18' E 008°29'0 0.0
2017-Feb-24 19:31N 44°18' E 008°29'0 0.0
2017-Feb-24 18:31N 44°18' E 008°29'0 0.0
2017-Feb-24 17:31N 44°18' E 008°29'0 0.0
2017-Feb-24 16:25N 44°18' E 008°29'0 0.0
2017-Feb-24 15:28N 44°18' E 008°29'3 3.5
2017-Feb-24 14:33N 44°16' E 008°27'4 3.9
2017-Feb-24 13:33N 44°19' E 008°30'1 0.1
2017-Feb-24 05:20N 44°18' E 008°29'0 0.0
2017-Feb-23 20:33N 44°18' E 008°29'0 0.0
2017-Feb-23 19:33N 44°18' E 008°29'0 0.0
2017-Feb-23 18:33N 44°18' E 008°29'0 0.0
2017-Feb-23 17:33N 44°18' E 008°29'0 0.0
2017-Feb-23 16:33N 44°18' E 008°29'0 0.0
2017-Feb-23 15:33N 44°18' E 008°29'0 0.0
2017-Feb-23 14:33N 44°18' E 008°29'0 0.0
2017-Feb-23 13:33N 44°18' E 008°29'0 0.0
2017-Feb-23 12:33N 44°18' E 008°29'0 0.0
2017-Feb-23 11:33N 44°18' E 008°29'0 0.0
2017-Feb-23 10:33N 44°18' E 008°29'0 0.0
2017-Feb-23 09:33N 44°18' E 008°29'0 0.0
2017-Feb-23 08:33N 44°18' E 008°29'0 0.0
2017-Feb-23 07:33N 44°18' E 008°29'0 0.0
2017-Feb-23 06:33N 44°18' E 008°29'0 0.0
2017-Feb-23 05:33N 44°18' E 008°29'0 0.0
2017-Feb-22 13:22N 44°18' E 008°29'0 0.0
2017-Feb-22 12:33N 44°18' E 008°29'0 0.0
2017-Feb-22 11:33N 44°18' E 008°29'1 0.7
2017-Feb-22 10:33N 44°19' E 008°30'1 0.7
2017-Feb-22 09:33N 44°18' E 008°29'0 0.0
2017-Feb-22 08:33N 44°18' E 008°29'0 0.0
2017-Feb-22 07:33N 44°18' E 008°29'0 0.0
2017-Feb-22 06:33N 44°18' E 008°29'0 0.0
2017-Feb-22 05:33N 44°18' E 008°29'0 0.0
2017-Feb-22 04:33N 44°18' E 008°29'0 0.0
2017-Feb-21 18:33N 44°18' E 008°29'0 0.0
2017-Feb-21 17:33N 44°18' E 008°29'0 0.0
2017-Feb-21 16:33N 44°18' E 008°29'0 0.0
2017-Feb-21 15:33N 44°18' E 008°29'0 0.0
2017-Feb-21 14:33N 44°18' E 008°29'0 0.0
2017-Feb-21 13:33N 44°18' E 008°29'0 0.0
2017-Feb-21 12:33N 44°18' E 008°29'0 0.0
2017-Feb-21 11:33N 44°18' E 008°29'0 0.0
2017-Feb-21 10:33N 44°18' E 008°29'1 0.7
2017-Feb-21 09:33N 44°18' E 008°29'2 1.6
2017-Feb-21 08:33N 44°17' E 008°28'1 0.8
2017-Feb-21 07:33N 44°16' E 008°28'3 2.8
2017-Feb-21 06:33N 44°18' E 008°29'0 0.0
2017-Feb-21 05:33N 44°18' E 008°29'0 0.0
2017-Feb-21 04:33N 44°18' E 008°29'0 0.0
2017-Feb-20 12:33N 44°18' E 008°29'0 0.0
2017-Feb-20 11:34N 44°18' E 008°29'0 0.0
2017-Feb-20 10:34N 44°18' E 008°29'0 0.0
2017-Feb-20 09:34N 44°18' E 008°29'0 0.0
2017-Feb-20 08:33N 44°18' E 008°29'0 0.0
2017-Feb-20 07:34N 44°18' E 008°29'0 0.0
2017-Feb-20 06:34N 44°18' E 008°29'0 0.0
2017-Feb-20 05:34N 44°18' E 008°29'0 0.0
2017-Feb-20 04:34N 44°18' E 008°29'0 0.0
2017-Feb-19 14:33N 44°18' E 008°29'1 0.6
2017-Feb-19 13:33N 44°19' E 008°30'0 0.2
2017-Feb-19 12:33N 44°19' E 008°30'0 0.3
2017-Feb-19 11:33N 44°19' E 008°30'0 0.3
2017-Feb-19 10:33N 44°19' E 008°29'0 0.0
2017-Feb-19 08:18N 44°18' E 008°29'0 0.0
2017-Feb-19 07:27N 44°18' E 008°29'0 0.0
2017-Feb-19 06:33N 44°18' E 008°29'0 0.0
2017-Feb-19 05:33N 44°18' E 008°29'0 0.0
2017-Feb-18 18:15N 44°18' E 008°29'1 1.3
2017-Feb-18 17:33N 44°19' E 008°30'1 0.3
2017-Feb-18 14:33N 44°18' E 008°29'0 0.0
2017-Feb-18 12:31N 44°18' E 008°29'0 0.0
2017-Feb-18 11:31N 44°18' E 008°29'0 0.0
2017-Feb-18 10:31N 44°18' E 008°29'0 0.0
2017-Feb-18 09:31N 44°18' E 008°29'0 0.0
2017-Feb-18 08:31N 44°18' E 008°29'1 0.7
2017-Feb-18 07:33N 44°19' E 008°30'0 0.2
2017-Feb-18 06:25N 44°19' E 008°30'1 0.9
2017-Feb-18 05:27N 44°18' E 008°29'0 0.0
2017-Feb-18 04:33N 44°18' E 008°29'0 0.0
2017-Feb-18 03:33N 44°18' E 008°29'0 0.0
2017-Feb-18 02:33N 44°18' E 008°29'0 0.0
2017-Feb-18 01:33N 44°18' E 008°29'3 3.3
2017-Feb-18 00:33N 44°16' E 008°27'3 3.0
2017-Feb-17 23:28N 44°18' E 008°29'  
Track history (hours):
 
Tides and Currents Weather Stations Pressure Air Temp Water Temp Dewpoint Dewpoint Depression Visibility Wind Speed Wind Dir Waves Ship Positions

Liguria

Last reported at 2017-Feb-27 19:33 UTC. Time now 2017-Feb-27 20:30 UTC.
Position N 44°18' E 008°29'.

Length 30 m; draft 4.5 m.

Type: Tug. MMSI: 247228500.

Date/timePositionNaut miles runAvg speedWind from/ knotsBaromVisibWave heightAir tempDewpointWater temp
2017-Feb-27 19:33N 44°18' E 008°29'2 1.8
2017-Feb-27 18:33N 44°17' E 008°28'1 0.9
2017-Feb-27 17:33N 44°16' E 008°27'3 0.5
2017-Feb-27 12:30N 44°18' E 008°29'0 0.0
2017-Feb-27 11:30N 44°18' E 008°29'0 0.0
2017-Feb-27 08:29N 44°18' E 008°29'0 0.0
2017-Feb-27 07:29N 44°18' E 008°29'0 0.0
2017-Feb-27 06:29N 44°18' E 008°29'0 0.0
2017-Feb-27 05:29N 44°18' E 008°29'0 0.0
2017-Feb-27 04:32N 44°18' E 008°29'0 0.0
2017-Feb-27 03:29N 44°18' E 008°29'0 0.0
2017-Feb-27 02:32N 44°18' E 008°29'0 0.0
2017-Feb-27 01:32N 44°18' E 008°29'0 0.0
2017-Feb-27 00:32N 44°18' E 008°29'0 0.0
2017-Feb-26 23:29N 44°18' E 008°29'0 0.0
2017-Feb-26 13:31N 44°18' E 008°29'0 0.0
2017-Feb-26 12:28N 44°18' E 008°29'0 0.0
2017-Feb-26 11:22N 44°18' E 008°29'0 0.0
2017-Feb-26 10:22N 44°18' E 008°29'0 0.0
2017-Feb-26 09:28N 44°18' E 008°29'0 0.0
2017-Feb-26 08:28N 44°18' E 008°29'0 0.0
2017-Feb-26 07:28N 44°18' E 008°29'1 1.1
2017-Feb-26 06:33N 44°19' E 008°31'1 1.0
2017-Feb-26 05:33N 44°18' E 008°29'0 0.0
2017-Feb-26 04:27N 44°18' E 008°29'0 0.0
2017-Feb-25 18:22N 44°18' E 008°29'0 0.0
2017-Feb-25 17:28N 44°18' E 008°29'1 0.8
2017-Feb-25 16:33N 44°19' E 008°30'1 0.6
2017-Feb-25 15:28N 44°18' E 008°29'0 0.4
2017-Feb-25 14:33N 44°19' E 008°30'0 0.1
2017-Feb-25 08:19N 44°18' E 008°29'0 0.0
2017-Feb-25 07:31N 44°18' E 008°29'0 0.0
2017-Feb-25 06:31N 44°18' E 008°29'3 3.1
2017-Feb-25 05:31N 44°16' E 008°27'3 3.6
2017-Feb-25 04:33N 44°19' E 008°30'0 0.3
2017-Feb-25 03:27N 44°18' E 008°29'0 0.0
2017-Feb-25 02:33N 44°18' E 008°29'1 1.4
2017-Feb-25 01:33N 44°17' E 008°29'2 1.6
2017-Feb-25 00:29N 44°19' E 008°30'0 0.1
2017-Feb-24 23:33N 44°19' E 008°30'0 0.4
2017-Feb-24 22:31N 44°18' E 008°29'0 0.0
2017-Feb-24 21:31N 44°18' E 008°29'0 0.0
2017-Feb-24 20:31N 44°18' E 008°29'0 0.0
2017-Feb-24 19:31N 44°18' E 008°29'0 0.0
2017-Feb-24 18:31N 44°18' E 008°29'0 0.0
2017-Feb-24 17:31N 44°18' E 008°29'0 0.0
2017-Feb-24 16:25N 44°18' E 008°29'0 0.0
2017-Feb-24 15:28N 44°18' E 008°29'3 3.5
2017-Feb-24 14:33N 44°16' E 008°27'4 3.9
2017-Feb-24 13:33N 44°19' E 008°30'1 0.1
2017-Feb-24 05:20N 44°18' E 008°29'0 0.0
2017-Feb-23 20:33N 44°18' E 008°29'0 0.0
2017-Feb-23 19:33N 44°18' E 008°29'0 0.0
2017-Feb-23 18:33N 44°18' E 008°29'0 0.0
2017-Feb-23 17:33N 44°18' E 008°29'0 0.0
2017-Feb-23 16:33N 44°18' E 008°29'0 0.0
2017-Feb-23 15:33N 44°18' E 008°29'0 0.0
2017-Feb-23 14:33N 44°18' E 008°29'0 0.0
2017-Feb-23 13:33N 44°18' E 008°29'0 0.0
2017-Feb-23 12:33N 44°18' E 008°29'0 0.0
2017-Feb-23 11:33N 44°18' E 008°29'0 0.0
2017-Feb-23 10:33N 44°18' E 008°29'0 0.0
2017-Feb-23 09:33N 44°18' E 008°29'0 0.0
2017-Feb-23 08:33N 44°18' E 008°29'0 0.0
2017-Feb-23 07:33N 44°18' E 008°29'0 0.0
2017-Feb-23 06:33N 44°18' E 008°29'0 0.0
2017-Feb-23 05:33N 44°18' E 008°29'0 0.0
2017-Feb-22 13:22N 44°18' E 008°29'0 0.0
2017-Feb-22 12:33N 44°18' E 008°29'0 0.0
2017-Feb-22 11:33N 44°18' E 008°29'1 0.7
2017-Feb-22 10:33N 44°19' E 008°30'1 0.7
2017-Feb-22 09:33N 44°18' E 008°29'0 0.0
2017-Feb-22 08:33N 44°18' E 008°29'0 0.0
2017-Feb-22 07:33N 44°18' E 008°29'0 0.0
2017-Feb-22 06:33N 44°18' E 008°29'0 0.0
2017-Feb-22 05:33N 44°18' E 008°29'0 0.0
2017-Feb-22 04:33N 44°18' E 008°29'0 0.0
2017-Feb-21 18:33N 44°18' E 008°29'0 0.0
2017-Feb-21 17:33N 44°18' E 008°29'0 0.0
2017-Feb-21 16:33N 44°18' E 008°29'0 0.0
2017-Feb-21 15:33N 44°18' E 008°29'0 0.0
2017-Feb-21 14:33N 44°18' E 008°29'0 0.0
2017-Feb-21 13:33N 44°18' E 008°29'0 0.0
2017-Feb-21 12:33N 44°18' E 008°29'0 0.0
2017-Feb-21 11:33N 44°18' E 008°29'0 0.0
2017-Feb-21 10:33N 44°18' E 008°29'1 0.7
2017-Feb-21 09:33N 44°18' E 008°29'2 1.6
2017-Feb-21 08:33N 44°17' E 008°28'1 0.8
2017-Feb-21 07:33N 44°16' E 008°28'3 2.8
2017-Feb-21 06:33N 44°18' E 008°29'0 0.0
2017-Feb-21 05:33N 44°18' E 008°29'0 0.0
2017-Feb-21 04:33N 44°18' E 008°29'0 0.0
2017-Feb-20 12:33N 44°18' E 008°29'0 0.0
2017-Feb-20 11:34N 44°18' E 008°29'0 0.0
2017-Feb-20 10:34N 44°18' E 008°29'0 0.0
2017-Feb-20 09:34N 44°18' E 008°29'0 0.0
2017-Feb-20 08:33N 44°18' E 008°29'0 0.0
2017-Feb-20 07:34N 44°18' E 008°29'0 0.0
2017-Feb-20 06:34N 44°18' E 008°29'0 0.0
2017-Feb-20 05:34N 44°18' E 008°29'0 0.0
2017-Feb-20 04:34N 44°18' E 008°29'0 0.0
2017-Feb-19 14:33N 44°18' E 008°29'1 0.6
2017-Feb-19 13:33N 44°19' E 008°30'0 0.2
2017-Feb-19 12:33N 44°19' E 008°30'0 0.3
2017-Feb-19 11:33N 44°19' E 008°30'0 0.3
2017-Feb-19 10:33N 44°19' E 008°29'0 0.0
2017-Feb-19 08:18N 44°18' E 008°29'0 0.0
2017-Feb-19 07:27N 44°18' E 008°29'0 0.0
2017-Feb-19 06:33N 44°18' E 008°29'0 0.0
2017-Feb-19 05:33N 44°18' E 008°29'0 0.0
2017-Feb-18 18:15N 44°18' E 008°29'1 1.3
2017-Feb-18 17:33N 44°19' E 008°30'1 0.3
2017-Feb-18 14:33N 44°18' E 008°29'0 0.0
2017-Feb-18 12:31N 44°18' E 008°29'0 0.0
2017-Feb-18 11:31N 44°18' E 008°29'0 0.0
2017-Feb-18 10:31N 44°18' E 008°29'0 0.0
2017-Feb-18 09:31N 44°18' E 008°29'0 0.0
2017-Feb-18 08:31N 44°18' E 008°29'1 0.7
2017-Feb-18 07:33N 44°19' E 008°30'0 0.2
2017-Feb-18 06:25N 44°19' E 008°30'1 0.9
2017-Feb-18 05:27N 44°18' E 008°29'0 0.0
2017-Feb-18 04:33N 44°18' E 008°29'0 0.0
2017-Feb-18 03:33N 44°18' E 008°29'0 0.0
2017-Feb-18 02:33N 44°18' E 008°29'0 0.0
2017-Feb-18 01:33N 44°18' E 008°29'3 3.3
2017-Feb-18 00:33N 44°16' E 008°27'3 3.0
2017-Feb-17 23:28N 44°18' E 008°29'  

Dump ship's entire track history